TAF Text Data
IDs:
Format:
Raw Decoded Include METAR

Data at: 0126 UTC 24 Sep 2018

KPGD 232320Z 2400/2424 06007KT P6SM VCTS SCT050CB BKN250
  FM240300 07003KT P6SM SCT250
  FM241400 09006KT P6SM SCT035 SCT250
  FM241900 25006KT P6SM VCTS SCT040CB BKN250